Time;durP1;ratioP1;P1;durP2;ratioP2;P2;SDS_P1;SDS_P2;PMS_P1;PMS_P2;Temp;Humidity;BMP_temperature;BMP_pressure;BME280_temperature;BME280_humidity;BME280_pressure;Samples;Min_cycle;Max_cycle;Signal;HPM_P1;HPM_P2
2022/05/11 00:01:17;;;;;;;4.60;4.20;;;;;;;11.82;54.30;99835.92;214264;1274;140599;-65
2022/05/11 00:06:21;;;;;;;12.40;4.60;;;;;;;11.77;54.56;99829.00;213548;1274;141084;-64
2022/05/11 00:11:28;;;;;;;9.10;6.40;;;;;;;11.74;54.54;99826.41;213758;1274;145172;-65
2022/05/11 00:16:34;;;;;;;9.50;5.50;;;;;;;11.73;54.91;99822.41;213446;1274;140542;-66
2022/05/11 00:21:38;;;;;;;5.50;4.50;;;;;;;11.73;55.02;99820.07;214110;1276;140621;-64
2022/05/11 00:26:41;;;;;;;8.40;5.00;;;;;;;11.75;54.95;99816.16;214311;1274;140430;-66
2022/05/11 00:31:44;;;;;;;6.40;4.70;;;;;;;11.75;55.37;99815.05;213582;1274;141155;-66
2022/05/11 00:36:48;;;;;;;7.70;4.90;;;;;;;11.71;55.66;99811.65;213778;1274;152840;-65
2022/05/11 00:41:51;;;;;;;6.20;4.50;;;;;;;11.65;55.80;99807.16;213669;1274;141162;-66
2022/05/11 00:47:01;;;;;;;8.90;4.80;;;;;;;11.61;55.93;99807.21;213740;1274;141724;-64
2022/05/11 00:52:20;;;;;;;10.80;4.70;;;;;;;11.56;56.17;99800.92;214493;1274;141392;-65
2022/05/11 00:57:31;;;;;;;9.00;5.30;;;;;;;11.47;56.31;99801.98;213891;1274;142625;-63
2022/05/11 01:02:35;;;;;;;6.50;4.70;;;;;;;11.39;56.85;99797.45;213582;1274;142204;-63
2022/05/11 01:07:39;;;;;;;7.80;4.80;;;;;;;11.34;57.05;99790.63;213548;1274;140903;-64
2022/05/11 01:12:44;;;;;;;7.40;5.00;;;;;;;11.29;57.13;99779.86;213857;1274;144640;-63
2022/05/11 01:17:48;;;;;;;10.60;7.10;;;;;;;11.25;57.26;99778.10;214006;1276;142244;-64
2022/05/11 01:23:02;;;;;;;13.60;6.40;;;;;;;11.25;57.46;99774.79;213720;1274;143107;-65
2022/05/11 01:28:12;;;;;;;7.10;5.90;;;;;;;11.24;57.56;99767.19;213274;1274;141180;-66
2022/05/11 01:33:22;;;;;;;9.20;4.80;;;;;;;11.24;57.66;99765.20;213646;1274;141284;-64
2022/05/11 01:38:32;;;;;;;7.20;5.60;;;;;;;11.22;57.83;99763.79;213522;1274;141950;-65
2022/05/11 01:43:38;;;;;;;6.90;5.40;;;;;;;11.16;57.90;99758.34;213503;1274;140758;-64
2022/05/11 01:48:42;;;;;;;8.00;5.20;;;;;;;11.10;58.09;99750.20;213395;1274;162608;-65
2022/05/11 01:53:45;;;;;;;10.60;6.60;;;;;;;11.01;58.28;99744.11;213686;1274;140787;-65
2022/05/11 01:58:50;;;;;;;9.60;6.00;;;;;;;10.92;58.55;99739.95;213613;1274;141295;-65
2022/05/11 02:03:55;;;;;;;5.80;4.70;;;;;;;10.87;58.61;99732.20;213946;1274;150124;-65
2022/05/11 02:08:58;;;;;;;10.20;5.50;;;;;;;10.84;58.73;99732.45;213887;1274;141047;-65
2022/05/11 02:14:01;;;;;;;8.70;6.10;;;;;;;10.79;58.84;99724.38;213953;1274;141622;-65
2022/05/11 02:19:04;;;;;;;7.70;5.70;;;;;;;10.75;59.13;99720.27;213571;1274;141021;-65
2022/05/11 02:24:08;;;;;;;7.70;5.20;;;;;;;10.73;59.32;99715.12;214232;1274;140820;-65
2022/05/11 02:29:11;;;;;;;9.20;5.80;;;;;;;10.71;59.44;99711.98;213952;1274;140329;-65
2022/05/11 02:35:12;;;;;;;10.40;6.00;;;;;;;10.70;59.56;99708.83;214266;1274;140195;-65
2022/05/11 02:39:39;;;;;;;11.10;7.50;;;;;;;10.70;59.82;99704.88;213974;1274;140392;-65
2022/05/11 02:44:43;;;;;;;10.20;7.70;;;;;;;10.73;59.88;99708.25;214499;1274;140357;-66
2022/05/11 02:49:46;;;;;;;22.80;7.80;;;;;;;10.78;59.82;99711.23;213605;1274;139690;-65
2022/05/11 02:54:49;;;;;;;7.10;5.60;;;;;;;10.83;60.09;99707.80;213534;1274;140941;-64
2022/05/11 02:59:54;;;;;;;10.20;7.00;;;;;;;10.88;59.98;99705.34;214184;1274;140866;-64
2022/05/11 03:04:57;;;;;;;9.20;6.40;;;;;;;10.92;60.17;99703.41;213911;1274;140586;-65
2022/05/11 03:10:01;;;;;;;9.20;6.40;;;;;;;10.97;60.15;99696.89;214255;1274;139812;-64
2022/05/11 03:15:06;;;;;;;7.60;6.80;;;;;;;11.03;60.09;99689.56;213468;1274;143720;-65
2022/05/11 03:20:10;;;;;;;8.80;6.90;;;;;;;11.08;60.16;99688.02;213465;1276;140320;-64
2022/05/11 03:25:14;;;;;;;8.60;7.20;;;;;;;11.15;60.11;99680.77;214138;1274;141022;-65
2022/05/11 03:30:17;;;;;;;8.80;5.70;;;;;;;11.24;60.32;99678.48;213946;1274;139448;-64
2022/05/11 03:35:20;;;;;;;12.50;7.00;;;;;;;11.36;60.33;99674.79;213502;1276;141384;-66
2022/05/11 03:40:23;;;;;;;12.80;7.70;;;;;;;11.49;60.21;99676.14;213524;1275;139834;-65
2022/05/11 03:45:26;;;;;;;8.30;6.80;;;;;;;11.63;60.09;99678.49;213974;1274;140419;-65
2022/05/11 03:50:29;;;;;;;9.60;6.30;;;;;;;11.76;59.86;99680.58;214350;1274;143793;-66
2022/05/11 03:55:33;;;;;;;15.00;8.20;;;;;;;11.87;59.99;99675.48;213983;1274;140525;-66
2022/05/11 04:00:38;;;;;;;10.60;7.10;;;;;;;12.02;59.85;99679.81;213399;1274;140798;-65
2022/05/11 04:05:41;;;;;;;16.80;7.30;;;;;;;12.18;59.76;99683.20;214208;1276;139961;-65
2022/05/11 04:10:44;;;;;;;13.00;7.20;;;;;;;12.35;59.53;99674.12;214044;1275;141053;-66
2022/05/11 04:15:50;;;;;;;7.60;6.20;;;;;;;12.63;59.16;99672.00;213591;1274;141500;-65
2022/05/11 04:20:53;;;;;;;12.90;6.70;;;;;;;12.88;58.81;99675.27;214379;1274;140530;-65
2022/05/11 04:25:59;;;;;;;10.90;7.50;;;;;;;12.89;58.36;99673.05;213519;1274;141169;-64
2022/05/11 04:31:06;;;;;;;8.90;6.70;;;;;;;12.98;58.57;99666.52;214356;1274;143106;-64
2022/05/11 04:36:09;;;;;;;10.40;7.00;;;;;;;13.23;58.44;99663.95;213710;1274;140745;-64
2022/05/11 04:41:12;;;;;;;11.30;7.80;;;;;;;13.56;58.27;99671.46;213724;1274;140484;-65
2022/05/11 04:46:15;;;;;;;12.40;7.90;;;;;;;14.04;57.92;99666.34;214427;1274;140234;-60
2022/05/11 04:51:17;;;;;;;13.20;9.90;;;;;;;14.42;57.52;99660.28;213970;1274;140365;-64
2022/05/11 04:56:19;;;;;;;14.40;7.70;;;;;;;14.72;57.34;99659.02;213869;1274;140072;-63
2022/05/11 05:01:21;;;;;;;9.00;7.80;;;;;;;15.07;56.96;99660.13;213293;1274;140543;-65
2022/05/11 05:06:24;;;;;;;9.60;7.00;;;;;;;15.56;56.49;99657.86;214582;1274;140248;-63
2022/05/11 05:11:27;;;;;;;9.50;8.20;;;;;;;16.05;55.77;99659.28;213886;1274;140086;-65
2022/05/11 05:16:30;;;;;;;9.60;7.80;;;;;;;17.01;54.96;99659.29;213722;1274;141243;-65
2022/05/11 05:21:33;;;;;;;7.60;6.40;;;;;;;19.73;52.39;99659.48;213337;1274;141714;-65
2022/05/11 05:26:36;;;;;;;13.20;7.40;;;;;;;22.40;49.72;99658.80;214188;1274;246159;-65
2022/05/11 05:31:40;;;;;;;10.70;7.90;;;;;;;24.35;46.68;99664.70;213759;1274;140376;-63
2022/05/11 05:36:44;;;;;;;8.20;6.30;;;;;;;26.86;43.71;99670.06;213747;1274;139634;-65
2022/05/11 05:41:48;;;;;;;7.10;6.00;;;;;;;29.00;40.72;99681.33;213549;1274;139767;-65
2022/05/11 05:46:54;;;;;;;10.00;5.50;;;;;;;30.20;37.75;99680.52;213487;1274;139997;-64
2022/05/11 05:52:01;;;;;;;8.90;5.60;;;;;;;30.15;36.72;99678.64;213669;1274;140335;-64
2022/05/11 05:57:04;;;;;;;6.80;4.20;;;;;;;30.93;34.94;99670.55;213775;1273;139497;-64
2022/05/11 06:02:13;;;;;;;4.20;3.90;;;;;;;30.75;34.19;99681.05;214357;1274;139815;-63
2022/05/11 06:07:21;;;;;;;7.40;5.70;;;;;;;29.58;34.29;99682.04;214075;1274;139861;-63
2022/05/11 06:12:25;;;;;;;5.60;4.50;;;;;;;28.40;34.73;99679.58;213972;1274;141078;-62
2022/05/11 06:17:29;;;;;;;8.20;5.00;;;;;;;27.55;35.07;99681.40;214474;1274;141222;-65
2022/05/11 06:22:32;;;;;;;6.50;5.80;;;;;;;26.76;35.77;99677.58;213633;1274;140511;-62
2022/05/11 06:27:35;;;;;;;6.90;5.10;;;;;;;26.19;36.67;99683.30;213716;1275;141544;-62
2022/05/11 06:32:38;;;;;;;6.30;5.10;;;;;;;26.14;37.42;99686.34;213444;1274;142104;-62
2022/05/11 06:37:41;;;;;;;7.50;5.40;;;;;;;25.73;37.40;99678.07;213764;1274;141439;-62
2022/05/11 06:42:44;;;;;;;10.80;6.20;;;;;;;25.28;38.17;99677.95;214180;1274;140605;-64
2022/05/11 06:47:48;;;;;;;9.50;5.90;;;;;;;24.97;38.91;99673.38;213466;1274;141204;-61
2022/05/11 06:52:53;;;;;;;8.90;5.60;;;;;;;25.02;39.79;99673.34;213691;1274;141154;-64
2022/05/11 07:03:23;;;;;;;8.00;6.50;;;;;;;25.58;39.82;99673.30;213829;1275;141615;-63
2022/05/11 07:08:33;;;;;;;7.70;5.50;;;;;;;25.63;39.98;99670.44;213538;1274;140827;-63
2022/05/11 07:13:36;;;;;;;6.60;5.90;;;;;;;25.63;40.13;99676.83;214252;1274;143850;-63
2022/05/11 07:18:39;;;;;;;7.00;5.00;;;;;;;25.49;39.77;99669.86;213631;1274;141465;-62
2022/05/11 07:23:42;;;;;;;5.90;5.40;;;;;;;25.27;40.06;99664.13;213252;1274;141111;-64
2022/05/11 07:28:45;;;;;;;5.20;4.30;;;;;;;25.10;40.40;99659.70;214022;1274;140367;-63
2022/05/11 07:33:48;;;;;;;6.00;5.50;;;;;;;25.38;41.02;99663.13;213606;1274;141092;-64
2022/05/11 07:38:51;;;;;;;6.60;5.60;;;;;;;25.62;40.66;99663.24;214190;1274;140577;-63
2022/05/11 07:43:55;;;;;;;9.70;6.40;;;;;;;25.62;40.31;99663.64;214319;1274;140646;-63
2022/05/11 07:48:59;;;;;;;8.00;6.20;;;;;;;25.48;40.49;99663.67;213011;1274;656604;-62
2022/05/11 07:54:04;;;;;;;7.40;5.60;;;;;;;25.78;40.97;99665.46;213900;1274;141936;-63
2022/05/11 08:04:30;;;;;;;7.90;6.30;;;;;;;26.65;40.98;99659.04;214062;1274;141163;-62
2022/05/11 08:09:33;;;;;;;7.00;5.60;;;;;;;26.89;40.55;99652.27;213701;1274;139747;-63
2022/05/11 08:14:39;;;;;;;10.40;5.90;;;;;;;27.15;40.42;99649.92;214556;1274;139394;-63
2022/05/11 08:19:43;;;;;;;8.80;5.50;;;;;;;27.36;39.88;99644.36;213633;1274;141014;-63
2022/05/11 08:24:52;;;;;;;7.50;6.60;;;;;;;27.54;39.34;99639.06;213964;1274;140179;-63
2022/05/11 08:35:19;;;;;;;8.70;6.10;;;;;;;27.08;38.94;99642.87;213536;1274;140102;-65
2022/05/11 08:40:59;;;;;;;10.60;5.40;;;;;;;27.18;39.35;99639.52;214228;1274;139480;-65
2022/05/11 08:46:10;;;;;;;7.40;6.50;;;;;;;27.31;39.22;99639.59;214352;1274;140625;-63
2022/05/11 08:51:36;;;;;;;7.50;5.70;;;;;;;27.49;39.24;99638.60;213694;1274;140649;-63
2022/05/11 08:56:41;;;;;;;9.00;6.30;;;;;;;27.49;39.04;99645.02;213336;1274;140826;-63
2022/05/11 09:01:55;;;;;;;6.60;6.10;;;;;;;27.62;39.22;99637.34;213594;1274;141500;-63
2022/05/11 09:06:59;;;;;;;9.00;6.60;;;;;;;27.79;39.37;99642.02;213694;1275;140744;-64
2022/05/11 09:12:01;;;;;;;8.50;6.00;;;;;;;27.75;39.24;99636.20;213681;1274;139880;-63
2022/05/11 09:17:19;;;;;;;7.00;6.00;;;;;;;27.83;39.41;99637.34;213473;1276;140469;-64
2022/05/11 09:22:25;;;;;;;7.00;6.30;;;;;;;27.67;39.03;99629.73;213779;1274;142030;-64
2022/05/11 09:27:30;;;;;;;9.00;6.90;;;;;;;27.75;39.30;99633.55;213615;1274;140945;-63
2022/05/11 09:32:37;;;;;;;7.90;6.30;;;;;;;27.86;39.27;99631.55;214244;1274;140191;-64
2022/05/11 09:37:42;;;;;;;11.90;6.20;;;;;;;28.03;39.54;99630.34;213605;1274;140430;-64
2022/05/11 09:42:52;;;;;;;9.30;7.30;;;;;;;28.06;38.85;99626.21;214174;1274;142275;-64
2022/05/11 09:48:12;;;;;;;11.30;6.50;;;;;;;28.22;38.60;99621.02;213549;1275;141689;-64
2022/05/11 09:53:35;;;;;;;6.80;6.30;;;;;;;28.25;38.21;99616.34;213536;1274;140861;-66
2022/05/11 09:58:39;;;;;;;6.10;5.70;;;;;;;28.14;37.79;99610.16;213645;1274;140747;-64
2022/05/11 10:04:00;;;;;;;6.90;6.00;;;;;;;28.15;38.31;99609.09;214186;1273;141339;-65
2022/05/11 10:09:33;;;;;;;7.70;6.70;;;;;;;28.23;37.63;99599.20;214284;1274;140664;-65
2022/05/11 10:25:55;;;;;;;4.90;4.50;;;;;;;28.68;37.28;99587.16;214177;1274;140594;-63
2022/05/11 10:31:26;;;;;;;5.60;5.20;;;;;;;28.78;37.20;99579.13;214023;1274;140221;-64
2022/05/11 10:36:30;;;;;;;5.70;5.00;;;;;;;29.01;37.48;99577.75;213671;1274;141569;-63
2022/05/11 10:41:54;;;;;;;6.20;5.70;;;;;;;29.17;36.40;99579.95;213549;1274;141205;-63
2022/05/11 10:47:30;;;;;;;5.00;4.70;;;;;;;29.20;36.38;99577.90;214498;1274;139368;-64
2022/05/11 10:52:40;;;;;;;6.50;5.30;;;;;;;29.32;36.56;99578.52;214078;1274;141723;-64
2022/05/11 10:57:52;;;;;;;4.90;4.60;;;;;;;29.17;36.04;99569.99;214583;1274;140509;-64
2022/05/11 11:03:21;;;;;;;5.30;4.90;;;;;;;29.23;35.42;99562.17;214255;1274;139508;-63
2022/05/11 11:08:33;;;;;;;6.50;4.90;;;;;;;29.03;35.18;99564.78;213584;1274;140221;-63
2022/05/11 11:13:46;;;;;;;8.60;4.50;;;;;;;28.93;34.80;99550.16;214192;1274;141791;-63
2022/05/11 11:18:51;;;;;;;9.10;5.70;;;;;;;29.03;35.06;99559.07;213830;1274;141437;-63
2022/05/11 11:24:14;;;;;;;6.40;5.90;;;;;;;29.17;35.02;99551.88;214509;1274;140306;-63
2022/05/11 11:29:24;;;;;;;5.30;5.00;;;;;;;28.85;34.37;99549.96;214507;1274;140536;-63
2022/05/11 11:34:37;;;;;;;6.20;5.60;;;;;;;28.51;34.52;99548.23;214327;1274;140408;-63
2022/05/11 11:39:55;;;;;;;7.70;4.80;;;;;;;28.31;34.60;99546.95;213862;1274;140817;-64
2022/05/11 11:44:59;;;;;;;5.50;4.90;;;;;;;28.24;34.73;99547.64;213678;1274;139715;-64
2022/05/11 11:50:03;;;;;;;6.10;5.50;;;;;;;28.19;34.87;99531.29;213733;1274;140279;-64
2022/05/11 11:55:28;;;;;;;6.40;5.00;;;;;;;28.21;34.68;99526.40;213681;1274;139500;-63
2022/05/11 12:00:56;;;;;;;6.40;5.80;;;;;;;28.41;35.04;99518.73;214008;1274;140546;-64
2022/05/11 12:16:57;;;;;;;8.90;6.20;;;;;;;28.13;35.31;99515.31;213929;1274;141096;-64
2022/05/11 12:22:22;;;;;;;5.70;5.00;;;;;;;28.23;35.25;99514.88;213802;1274;141402;-64
2022/05/11 12:27:36;;;;;;;6.80;5.80;;;;;;;28.43;35.09;99514.91;214682;1274;140517;-64
2022/05/11 12:32:42;;;;;;;6.70;5.80;;;;;;;28.43;34.96;99504.27;213378;1274;140571;-64
2022/05/11 12:38:10;;;;;;;8.10;5.90;;;;;;;28.35;35.22;99501.66;213859;1274;139455;-65
2022/05/11 12:43:34;;;;;;;9.20;6.10;;;;;;;28.51;35.51;99495.10;214039;1275;140473;-64
2022/05/11 12:48:42;;;;;;;6.10;5.50;;;;;;;28.49;35.03;99494.27;213628;1275;140026;-63
2022/05/11 12:53:56;;;;;;;10.30;5.60;;;;;;;28.46;34.70;99493.13;213489;1276;141834;-63
2022/05/11 12:59:19;;;;;;;6.40;5.90;;;;;;;28.56;34.64;99487.76;213261;1274;140017;-64
2022/05/11 13:04:25;;;;;;;6.90;6.30;;;;;;;28.34;34.26;99484.52;214135;1274;142963;-63
2022/05/11 13:09:45;;;;;;;6.90;6.10;;;;;;;28.30;34.54;99479.94;213967;1274;139262;-64
2022/05/11 13:14:55;;;;;;;25.10;6.40;;;;;;;28.34;34.93;99471.66;214736;1274;139897;-63
2022/05/11 13:20:05;;;;;;;6.30;5.00;;;;;;;28.56;35.03;99470.77;213990;1274;141000;-63
2022/05/11 13:25:30;;;;;;;6.30;5.20;;;;;;;28.42;34.28;99471.80;214604;1274;141583;-63
2022/05/11 13:30:36;;;;;;;6.00;5.50;;;;;;;27.98;34.47;99470.36;213652;1274;140735;-63
2022/05/11 13:35:41;;;;;;;7.80;5.30;;;;;;;28.10;34.38;99454.42;215183;1274;139597;-63
2022/05/11 13:41:02;;;;;;;6.00;5.50;;;;;;;28.25;34.46;99459.31;213564;1274;139154;-63
2022/05/11 13:46:32;;;;;;;7.00;5.50;;;;;;;28.37;34.09;99452.55;213934;1274;140857;-62
2022/05/11 13:51:40;;;;;;;5.70;5.20;;;;;;;28.16;33.82;99438.27;214128;1274;139953;-65
2022/05/11 13:56:57;;;;;;;4.90;4.10;;;;;;;27.63;33.56;99437.92;213616;1274;151976;-63
2022/05/11 14:02:03;;;;;;;5.40;4.90;;;;;;;27.47;33.82;99425.65;213953;1274;140070;-63
2022/05/11 14:07:13;;;;;;;6.40;5.10;;;;;;;27.75;33.68;99425.23;213973;1274;140969;-62
2022/05/11 14:12:17;;;;;;;5.00;4.50;;;;;;;27.82;33.12;99419.22;214095;1274;139365;-63
2022/05/11 14:17:27;;;;;;;5.70;4.60;;;;;;;27.76;33.34;99415.27;214270;1275;139372;-63
2022/05/11 14:22:35;;;;;;;4.90;4.40;;;;;;;27.66;33.51;99407.02;214298;1276;139583;-63
2022/05/11 14:27:39;;;;;;;5.40;5.00;;;;;;;27.72;33.58;99397.23;213481;1274;141511;-63
2022/05/11 14:32:46;;;;;;;6.90;5.00;;;;;;;27.84;34.19;99396.23;214137;1274;139686;-62
2022/05/11 14:37:52;;;;;;;5.90;5.40;;;;;;;27.92;33.87;99385.77;213580;1274;140622;-63
2022/05/11 14:43:03;;;;;;;6.50;5.40;;;;;;;27.96;33.71;99377.26;213690;1274;141517;-64
2022/05/11 14:48:23;;;;;;;5.90;5.20;;;;;;;27.84;33.88;99375.27;213428;1274;140365;-64
2022/05/11 14:53:28;;;;;;;7.50;5.40;;;;;;;27.82;34.08;99381.27;213502;1274;140972;-65
2022/05/11 15:03:55;;;;;;;5.00;4.50;;;;;;;27.60;34.33;99371.36;213827;1274;140116;-65
2022/05/11 15:09:02;;;;;;;;;;;;;;;27.73;34.37;99368.00;214066;1274;139552;-64
2022/05/11 15:14:06;;;;;;;7.10;5.70;;;;;;;27.66;34.53;99367.05;214256;1274;127055;-64
2022/05/11 15:19:19;;;;;;;8.40;4.90;;;;;;;27.61;34.30;99361.77;213784;1274;141945;-64
2022/05/11 15:24:28;;;;;;;5.40;4.70;;;;;;;27.57;34.07;99352.42;214342;1274;141283;-63
2022/05/11 15:29:31;;;;;;;5.30;5.00;;;;;;;27.52;34.07;99349.35;213242;1274;141591;-65
2022/05/11 15:34:36;;;;;;;6.20;4.70;;;;;;;27.52;33.70;99345.75;214419;1274;139820;-66
2022/05/11 15:39:40;;;;;;;4.70;4.30;;;;;;;27.39;33.60;99345.38;213506;1274;141665;-64
2022/05/11 15:44:44;;;;;;;17.70;5.60;;;;;;;27.27;33.44;99343.52;213540;1274;141151;-64
2022/05/11 15:49:52;;;;;;;7.90;4.10;;;;;;;27.17;33.18;99345.16;213578;1274;142425;-64
2022/05/11 15:54:56;;;;;;;4.10;3.70;;;;;;;27.04;32.93;99339.85;213496;1274;140682;-63
2022/05/11 15:59:59;;;;;;;8.60;4.40;;;;;;;26.85;32.98;99338.58;214391;1274;140810;-63
2022/05/11 16:05:05;;;;;;;5.10;4.00;;;;;;;26.70;32.89;99343.25;213396;1274;140418;-63
2022/05/11 16:10:09;;;;;;;;;;;;;;;26.58;32.63;99337.71;213868;1274;141985;-63
2022/05/11 16:15:16;;;;;;;3.70;3.50;;;;;;;26.44;32.63;99341.34;214137;1274;127293;-64
2022/05/11 16:20:20;;;;;;;5.50;4.40;;;;;;;26.34;32.80;99335.06;213696;1274;139583;-64
2022/05/11 16:25:25;;;;;;;4.70;3.50;;;;;;;26.30;32.95;99332.35;214167;1274;141914;-63
2022/05/11 16:30:28;;;;;;;4.90;4.50;;;;;;;26.22;33.13;99330.17;213740;1274;140204;-63
2022/05/11 16:35:33;;;;;;;5.00;4.00;;;;;;;26.11;33.00;99329.63;213686;1274;140749;-64
2022/05/11 16:40:37;;;;;;;4.00;3.80;;;;;;;26.05;32.94;99327.72;213435;1276;139345;-63
2022/05/11 16:45:40;;;;;;;4.80;4.50;;;;;;;25.99;33.20;99328.43;213316;1274;139953;-63
2022/05/11 16:50:44;;;;;;;6.30;4.40;;;;;;;25.87;33.54;99327.79;213625;1274;140836;-63
2022/05/11 16:55:49;;;;;;;4.30;4.10;;;;;;;25.78;33.66;99322.21;213671;1274;139897;-63
2022/05/11 17:00:55;;;;;;;11.90;3.70;;;;;;;25.70;33.69;99315.59;213824;1274;140948;-62
2022/05/11 17:05:58;;;;;;;5.90;5.30;;;;;;;25.58;34.01;99318.73;213079;1274;139823;-64
2022/05/11 17:11:03;;;;;;;5.90;5.40;;;;;;;25.42;34.18;99322.58;213822;1274;140257;-64
2022/05/11 17:16:06;;;;;;;5.50;5.00;;;;;;;25.22;34.70;99320.63;214148;1274;139853;-63
2022/05/11 17:21:09;;;;;;;5.70;5.20;;;;;;;25.08;35.11;99316.38;214438;1274;141182;-64
2022/05/11 17:26:14;;;;;;;6.50;4.70;;;;;;;24.96;35.33;99315.27;213675;1274;140659;-63
2022/05/11 17:31:17;;;;;;;4.90;4.50;;;;;;;24.83;35.75;99318.71;214453;1274;140515;-66
2022/05/11 17:36:20;;;;;;;5.60;5.10;;;;;;;24.67;35.98;99316.00;213800;1274;139651;-66
2022/05/11 17:41:23;;;;;;;5.30;4.10;;;;;;;24.49;36.30;99318.20;213274;1275;141428;-64
2022/05/11 17:46:26;;;;;;;5.90;5.40;;;;;;;24.27;36.68;99318.67;214294;1274;139947;-64
2022/05/11 17:51:30;;;;;;;5.20;4.80;;;;;;;24.07;37.36;99320.27;214299;1274;139732;-64
2022/05/11 17:56:33;;;;;;;5.20;4.80;;;;;;;23.81;37.90;99322.42;213264;1274;141723;-64
2022/05/11 18:01:37;;;;;;;6.90;6.30;;;;;;;23.59;38.16;99320.27;213608;1274;141466;-65
2022/05/11 18:06:43;;;;;;;8.20;4.90;;;;;;;23.32;38.60;99323.34;214146;1274;141268;-64
2022/05/11 18:11:48;;;;;;;6.60;5.90;;;;;;;23.09;38.99;99320.11;213372;1274;142530;-65
2022/05/11 18:16:50;;;;;;;5.70;5.20;;;;;;;22.87;39.50;99319.73;213289;1274;142562;-64
2022/05/11 18:21:54;;;;;;;6.60;5.30;;;;;;;22.60;40.25;99320.27;213820;1274;140859;-63
2022/05/11 18:26:57;;;;;;;5.40;5.00;;;;;;;22.31;40.79;99318.90;213888;1274;140605;-65
2022/05/11 18:32:00;;;;;;;6.50;5.90;;;;;;;22.09;41.27;99317.34;213732;1274;140621;-64
2022/05/11 18:37:05;;;;;;;5.60;5.10;;;;;;;21.92;41.69;99318.16;213442;1275;140597;-66
2022/05/11 18:42:09;;;;;;;6.80;5.60;;;;;;;21.76;42.13;99321.10;213717;1274;141318;-65
2022/05/11 18:47:12;;;;;;;8.40;5.60;;;;;;;21.68;42.42;99323.00;213494;1274;153803;-65
2022/05/11 18:52:15;;;;;;;7.60;5.80;;;;;;;21.55;42.80;99324.19;213760;1274;139840;-64
2022/05/11 18:57:18;;;;;;;6.80;5.60;;;;;;;21.45;42.93;99332.14;213984;1274;140651;-64
2022/05/11 19:02:20;;;;;;;6.80;5.40;;;;;;;21.36;43.24;99334.14;213520;1274;140600;-65
2022/05/11 19:07:23;;;;;;;10.00;5.60;;;;;;;21.24;43.62;99332.55;213710;1274;140132;-64
2022/05/11 19:12:27;;;;;;;10.70;6.20;;;;;;;21.13;43.98;99335.16;213992;1274;140517;-65
2022/05/11 19:17:32;;;;;;;6.80;6.20;;;;;;;20.95;44.68;99335.55;213918;1274;140301;-65
2022/05/11 19:22:37;;;;;;;8.20;7.10;;;;;;;20.72;45.13;99331.83;213568;1274;140298;-65
2022/05/11 19:27:42;;;;;;;9.10;6.50;;;;;;;20.47;45.76;99327.05;213801;1274;140273;-65
2022/05/11 19:32:45;;;;;;;7.20;6.20;;;;;;;20.15;46.28;99319.02;213385;1274;141445;-66
2022/05/11 19:37:48;;;;;;;8.80;6.80;;;;;;;19.75;47.11;99318.21;214214;1274;139925;-64
2022/05/11 19:42:50;;;;;;;9.80;7.00;;;;;;;19.49;47.80;99318.95;213678;1274;139680;-63
2022/05/11 19:47:54;;;;;;;9.00;7.10;;;;;;;19.35;48.43;99321.95;213689;1274;689530;-63
2022/05/11 19:52:58;;;;;;;11.10;8.20;;;;;;;19.15;49.15;99313.22;213709;1274;139893;-65
2022/05/11 19:58:09;;;;;;;8.40;7.10;;;;;;;18.97;49.70;99309.89;214135;1274;140080;-64
2022/05/11 20:03:18;;;;;;;14.80;8.60;;;;;;;18.81;50.19;99309.71;213656;1274;140593;-65
2022/05/11 20:08:24;;;;;;;10.20;6.80;;;;;;;18.72;50.81;99306.42;213641;1274;140323;-65
2022/05/11 20:13:26;;;;;;;11.90;8.10;;;;;;;18.63;51.00;99299.96;213473;1274;139677;-66
2022/05/11 20:18:29;;;;;;;10.90;8.30;;;;;;;18.56;51.40;99295.53;214024;1274;140391;-64
2022/05/11 20:23:31;;;;;;;9.30;8.30;;;;;;;18.48;51.85;99295.60;213975;1274;140504;-65
2022/05/11 20:28:34;;;;;;;12.90;8.90;;;;;;;18.53;51.99;99289.54;213385;1274;139995;-64
2022/05/11 20:39:03;;;;;;;13.30;9.00;;;;;;;18.53;52.56;99285.65;213373;1274;139906;-65
2022/05/11 20:44:05;;;;;;;11.20;8.90;;;;;;;18.45;52.96;99283.61;213826;1274;140099;-65
2022/05/11 20:49:08;;;;;;;9.50;8.40;;;;;;;18.41;53.11;99282.55;213468;1274;140716;-65
2022/05/11 20:54:12;;;;;;;9.70;8.80;;;;;;;18.34;53.30;99280.36;213634;1274;163699;-66
2022/05/11 20:59:16;;;;;;;10.90;8.40;;;;;;;18.30;53.68;99275.23;213653;1276;141107;-65
2022/05/11 21:04:19;;;;;;;10.50;9.40;;;;;;;18.24;53.99;99273.52;213937;1276;141401;-66
2022/05/11 21:09:22;;;;;;;12.50;10.10;;;;;;;18.16;54.16;99271.77;213567;1274;141619;-65
2022/05/11 21:14:26;;;;;;;11.40;9.10;;;;;;;18.08;54.31;99271.15;213596;1274;162498;-66
2022/05/11 21:19:29;;;;;;;9.10;8.30;;;;;;;18.00;54.46;99267.30;213508;1276;140705;-65
2022/05/11 21:24:35;;;;;;;9.80;8.90;;;;;;;17.94;54.81;99262.33;214128;1274;140384;-65
2022/05/11 21:29:38;;;;;;;10.00;8.50;;;;;;;17.90;55.04;99254.09;213578;1274;142231;-65
2022/05/11 21:34:42;;;;;;;9.50;8.50;;;;;;;17.81;55.26;99255.52;214233;1274;145253;-64
2022/05/11 21:39:49;;;;;;;8.60;7.80;;;;;;;17.83;55.55;99246.36;213553;1274;141439;-65
2022/05/11 21:44:52;;;;;;;10.70;9.60;;;;;;;17.89;55.66;99244.29;213881;1274;142132;-65
2022/05/11 21:49:56;;;;;;;11.30;9.10;;;;;;;17.97;55.72;99241.25;213481;1274;141605;-64
2022/05/11 21:54:59;;;;;;;12.10;10.10;;;;;;;18.05;55.65;99240.55;214092;1274;142855;-65
2022/05/11 22:00:07;;;;;;;10.70;8.20;;;;;;;18.10;55.58;99238.80;213524;1274;141501;-64
2022/05/11 22:05:11;;;;;;;8.50;7.60;;;;;;;18.15;55.49;99233.75;213947;1274;142089;-65
2022/05/11 22:10:17;;;;;;;16.90;9.10;;;;;;;18.19;55.53;99232.83;213375;1274;140651;-65
2022/05/11 22:15:21;;;;;;;9.20;8.30;;;;;;;18.23;55.45;99223.95;214230;1274;141191;-65
2022/05/11 22:20:27;;;;;;;10.70;7.80;;;;;;;18.28;55.35;99224.09;213548;1274;141585;-65
2022/05/11 22:25:31;;;;;;;8.30;7.30;;;;;;;18.32;55.53;99225.33;214134;1274;140512;-66
2022/05/11 22:30:40;;;;;;;8.90;8.00;;;;;;;18.36;55.30;99221.99;213695;1274;141145;-65
2022/05/11 22:35:52;;;;;;;8.70;7.80;;;;;;;18.35;55.21;99224.05;214361;1274;141282;-65
2022/05/11 22:40:56;;;;;;;13.10;8.60;;;;;;;18.35;55.25;99216.77;214111;1274;140440;-65
2022/05/11 22:46:00;;;;;;;8.90;7.90;;;;;;;18.33;55.26;99209.85;214194;1274;140049;-64
2022/05/11 22:51:03;;;;;;;9.60;7.70;;;;;;;18.33;55.24;99211.38;214070;1274;140821;-64
2022/05/11 22:56:06;;;;;;;8.30;7.50;;;;;;;18.30;55.23;99204.03;213985;1274;140980;-64
2022/05/11 23:01:10;;;;;;;13.70;8.60;;;;;;;18.28;55.43;99203.91;213623;1274;140417;-65
2022/05/11 23:06:12;;;;;;;7.70;6.80;;;;;;;18.25;55.40;99200.46;214476;1274;143420;-65
2022/05/11 23:11:15;;;;;;;7.40;6.70;;;;;;;18.18;55.35;99195.67;213762;1274;155276;-65
2022/05/11 23:16:18;;;;;;;8.70;7.90;;;;;;;18.11;55.44;99191.90;213661;1274;140538;-64
2022/05/11 23:21:22;;;;;;;11.10;8.00;;;;;;;18.05;55.59;99195.09;213626;1274;141141;-67
2022/05/11 23:26:24;;;;;;;7.10;6.50;;;;;;;18.00;55.73;99194.55;214291;1274;140565;-65
2022/05/11 23:31:29;;;;;;;11.70;8.00;;;;;;;17.96;55.83;99191.10;213447;1274;139908;-66
2022/05/11 23:36:32;;;;;;;10.20;9.30;;;;;;;17.92;55.89;99183.04;213785;1274;140685;-67
2022/05/11 23:41:35;;;;;;;13.00;8.10;;;;;;;17.88;55.93;99179.70;213832;1274;141305;-66
2022/05/11 23:46:39;;;;;;;7.20;6.30;;;;;;;17.88;55.97;99178.67;214481;1274;141239;-66
2022/05/11 23:51:42;;;;;;;10.60;8.20;;;;;;;17.86;56.04;99173.80;213778;1274;139692;-66
2022/05/11 23:56:45;;;;;;;7.60;7.00;;;;;;;17.82;56.06;99164.04;214136;1274;140376;-66
